Terminal Aerodrome Forecast
Issued by NWS Green Bay, WI

Home | Current Version | Previous Version | Graphics & Text | Print | Product List | Glossary On
Versions: 1 2 3 4 5 6 7 8 9 10 11 12 13 14 15 16 17 18 19 20 21 22 23 24 25 26 27 28 29 30 31 32 33 34 35 36 37
000
FTUS43 KGRB 200529
TAFGRB
TAF
KGRB 200529Z 2006/2106 22006KT P6SM SCT100 BKN200
     FM201800 20011G17KT P6SM BKN200
     FM202300 21012G18KT P6SM SCT120 BKN200 WS014/23045KT=

USA.gov is the U.S. government's official web portal to all federal, state and local government web resources and services.